Etusivu
METAR-TAF:

METAR-TAF

Lentoasemat :

Mikkeli, Suomi

Mikkelin lentoasema

Leveyspiiri: 61-44N, Pituuspiiri: 027-18E, korkeus merenpinnasta: 138 m

Tämänhetkinen sää

Tämä raportti tehtiin 17 minuuttia sitten, kello 11.20 UTC
Tuuli 6 kn eri suunnista
Lämpötila 8°C
Kosteus 66%
Ilmanpaine 1008 hPa
Näkyvyys 10 km tai enemmän
Hajonneita pilviä 2100 ft:n korkeudessa

METAR: EFMI 291120Z AUTO VRB06KT 9999 BKN021 08/02 Q1008

Aika: 14:37 (11:37 UTC)


TAF: puuttuu

Säähavainnot ja -ennusteet yli 4000 lentoasemalta (METAR- ja TAF-raportit).

Käytössä olevat sääasemat on merkitty karttaan keltaisilla ja punaisilla pisteillä.

Aseta hiiri pisteen päälle nähdäksesi sääaseman nimen.

Klikkaa sitten nähdäksesi säähavainnot ja -ennusteet.

Kartan vaihtaminen: klikkaa mustalla rastilla varustettuja vihreitä pisteitä, niin voit zoomata sisään; viivalla varustettua vihreää pistettä, niin voit zoomata ulos tai vihreitä nuolia, niin pääset viereisille kartoille.


METAR-TAF: